sensor_id;sensor_type;location;lat;lon;timestamp;P1;durP1;ratioP1;P2;durP2;ratioP2
15944;SDS011;30172;48.832;8.732;2022-10-16T00:03:36;2.40;;;1.40;;
15944;SDS011;30172;48.832;8.732;2022-10-16T00:06:02;4.60;;;2.03;;
15944;SDS011;30172;48.832;8.732;2022-10-16T00:08:28;1.47;;;1.37;;
15944;SDS011;30172;48.832;8.732;2022-10-16T00:10:58;2.20;;;1.40;;
15944;SDS011;30172;48.832;8.732;2022-10-16T00:13:24;3.30;;;1.60;;
15944;SDS011;30172;48.832;8.732;2022-10-16T00:15:50;2.10;;;1.33;;
15944;SDS011;30172;48.832;8.732;2022-10-16T00:18:15;3.50;;;1.70;;
15944;SDS011;30172;48.832;8.732;2022-10-16T00:20:40;2.83;;;1.60;;
15944;SDS011;30172;48.832;8.732;2022-10-16T00:23:06;3.53;;;1.20;;
15944;SDS011;30172;48.832;8.732;2022-10-16T00:25:31;1.80;;;1.30;;
15944;SDS011;30172;48.832;8.732;2022-10-16T00:28:01;2.57;;;1.60;;
15944;SDS011;30172;48.832;8.732;2022-10-16T00:30:26;1.50;;;1.40;;
15944;SDS011;30172;48.832;8.732;2022-10-16T00:32:52;1.83;;;1.53;;
15944;SDS011;30172;48.832;8.732;2022-10-16T00:35:18;2.23;;;1.50;;
15944;SDS011;30172;48.832;8.732;2022-10-16T00:37:43;2.30;;;1.30;;
15944;SDS011;30172;48.832;8.732;2022-10-16T00:40:08;1.70;;;1.30;;
15944;SDS011;30172;48.832;8.732;2022-10-16T00:42:34;3.17;;;1.30;;
15944;SDS011;30172;48.832;8.732;2022-10-16T00:44:59;2.00;;;1.70;;
15944;SDS011;30172;48.832;8.732;2022-10-16T00:47:39;3.83;;;1.30;;
15944;SDS011;30172;48.832;8.732;2022-10-16T00:50:07;1.30;;;1.20;;
15944;SDS011;30172;48.832;8.732;2022-10-16T00:52:34;1.53;;;1.10;;
15944;SDS011;30172;48.832;8.732;2022-10-16T00:55:02;3.23;;;1.50;;
15944;SDS011;30172;48.832;8.732;2022-10-16T00:57:28;1.10;;;1.07;;
15944;SDS011;30172;48.832;8.732;2022-10-16T00:59:53;2.53;;;1.60;;
15944;SDS011;30172;48.832;8.732;2022-10-16T01:02:19;3.87;;;1.20;;
15944;SDS011;30172;48.832;8.732;2022-10-16T01:04:49;2.83;;;1.47;;
15944;SDS011;30172;48.832;8.732;2022-10-16T01:07:30;1.60;;;1.47;;
15944;SDS011;30172;48.832;8.732;2022-10-16T01:15:37;3.53;;;1.80;;
15944;SDS011;30172;48.832;8.732;2022-10-16T01:20:50;3.53;;;1.60;;
15944;SDS011;30172;48.832;8.732;2022-10-16T01:23:21;2.13;;;1.30;;
15944;SDS011;30172;48.832;8.732;2022-10-16T01:26:09;1.63;;;1.53;;
15944;SDS011;30172;48.832;8.732;2022-10-16T01:28:38;1.70;;;1.60;;
15944;SDS011;30172;48.832;8.732;2022-10-16T01:31:07;1.63;;;1.52;;
15944;SDS011;30172;48.832;8.732;2022-10-16T01:33:35;1.97;;;1.50;;
15944;SDS011;30172;48.832;8.732;2022-10-16T01:36:12;2.57;;;1.60;;
15944;SDS011;30172;48.832;8.732;2022-10-16T01:38:39;2.53;;;2.00;;
15944;SDS011;30172;48.832;8.732;2022-10-16T01:41:09;3.03;;;1.87;;
15944;SDS011;30172;48.832;8.732;2022-10-16T01:43:38;2.50;;;1.47;;
15944;SDS011;30172;48.832;8.732;2022-10-16T01:46:06;1.70;;;1.50;;
15944;SDS011;30172;48.832;8.732;2022-10-16T01:48:32;1.77;;;1.63;;
15944;SDS011;30172;48.832;8.732;2022-10-16T01:51:14;2.03;;;1.67;;
15944;SDS011;30172;48.832;8.732;2022-10-16T01:53:40;2.77;;;1.50;;
15944;SDS011;30172;48.832;8.732;2022-10-16T01:56:08;1.73;;;1.63;;
15944;SDS011;30172;48.832;8.732;2022-10-16T01:58:36;5.13;;;1.87;;
15944;SDS011;30172;48.832;8.732;2022-10-16T02:01:04;1.93;;;1.50;;
15944;SDS011;30172;48.832;8.732;2022-10-16T02:03:29;2.50;;;1.43;;
15944;SDS011;30172;48.832;8.732;2022-10-16T02:05:56;2.25;;;1.73;;
15944;SDS011;30172;48.832;8.732;2022-10-16T02:08:23;2.83;;;1.60;;
15944;SDS011;30172;48.832;8.732;2022-10-16T02:10:53;3.10;;;1.50;;
15944;SDS011;30172;48.832;8.732;2022-10-16T02:13:22;2.97;;;1.50;;
15944;SDS011;30172;48.832;8.732;2022-10-16T02:15:51;4.50;;;1.45;;
15944;SDS011;30172;48.832;8.732;2022-10-16T02:18:17;3.83;;;1.57;;
15944;SDS011;30172;48.832;8.732;2022-10-16T02:20:44;2.80;;;1.30;;
15944;SDS011;30172;48.832;8.732;2022-10-16T02:23:18;3.30;;;1.50;;
15944;SDS011;30172;48.832;8.732;2022-10-16T02:25:53;5.90;;;1.87;;
15944;SDS011;30172;48.832;8.732;2022-10-16T02:28:21;3.40;;;1.40;;
15944;SDS011;30172;48.832;8.732;2022-10-16T02:30:49;1.57;;;1.40;;
15944;SDS011;30172;48.832;8.732;2022-10-16T02:33:17;4.33;;;1.90;;
15944;SDS011;30172;48.832;8.732;2022-10-16T02:35:44;1.73;;;1.63;;
15944;SDS011;30172;48.832;8.732;2022-10-16T02:38:11;3.17;;;1.50;;
15944;SDS011;30172;48.832;8.732;2022-10-16T02:40:37;2.40;;;1.70;;
15944;SDS011;30172;48.832;8.732;2022-10-16T02:43:04;4.17;;;1.70;;
15944;SDS011;30172;48.832;8.732;2022-10-16T02:45:30;2.03;;;1.30;;
15944;SDS011;30172;48.832;8.732;2022-10-16T02:47:55;3.27;;;1.63;;
15944;SDS011;30172;48.832;8.732;2022-10-16T02:50:21;1.57;;;1.47;;
15944;SDS011;30172;48.832;8.732;2022-10-16T02:52:46;3.13;;;1.73;;
15944;SDS011;30172;48.832;8.732;2022-10-16T02:55:12;2.00;;;1.53;;
15944;SDS011;30172;48.832;8.732;2022-10-16T02:57:37;2.90;;;1.50;;
15944;SDS011;30172;48.832;8.732;2022-10-16T03:00:05;1.70;;;1.60;;
15944;SDS011;30172;48.832;8.732;2022-10-16T03:02:31;1.83;;;1.60;;
15944;SDS011;30172;48.832;8.732;2022-10-16T03:04:59;3.43;;;1.40;;
15944;SDS011;30172;48.832;8.732;2022-10-16T03:07:24;6.10;;;1.50;;
15944;SDS011;30172;48.832;8.732;2022-10-16T03:09:50;1.60;;;1.20;;
15944;SDS011;30172;48.832;8.732;2022-10-16T03:12:15;3.63;;;1.33;;
15944;SDS011;30172;48.832;8.732;2022-10-16T03:14:40;2.23;;;1.50;;
15944;SDS011;30172;48.832;8.732;2022-10-16T03:17:06;3.27;;;1.53;;
15944;SDS011;30172;48.832;8.732;2022-10-16T03:19:31;5.67;;;1.60;;
15944;SDS011;30172;48.832;8.732;2022-10-16T03:21:56;2.80;;;1.80;;
15944;SDS011;30172;48.832;8.732;2022-10-16T03:24:22;2.93;;;1.33;;
15944;SDS011;30172;48.832;8.732;2022-10-16T03:26:47;2.63;;;1.57;;
15944;SDS011;30172;48.832;8.732;2022-10-16T03:29:12;3.00;;;1.77;;
15944;SDS011;30172;48.832;8.732;2022-10-16T03:31:38;2.77;;;1.50;;
15944;SDS011;30172;48.832;8.732;2022-10-16T03:34:03;1.60;;;1.50;;
15944;SDS011;30172;48.832;8.732;2022-10-16T03:36:28;3.20;;;1.57;;
15944;SDS011;30172;48.832;8.732;2022-10-16T03:38:54;2.00;;;1.80;;
15944;SDS011;30172;48.832;8.732;2022-10-16T03:41:19;4.40;;;1.80;;
15944;SDS011;30172;48.832;8.732;2022-10-16T03:43:44;3.60;;;1.50;;
15944;SDS011;30172;48.832;8.732;2022-10-16T03:46:10;2.80;;;2.00;;
15944;SDS011;30172;48.832;8.732;2022-10-16T03:48:35;7.57;;;1.50;;
15944;SDS011;30172;48.832;8.732;2022-10-16T03:51:00;1.63;;;1.37;;
15944;SDS011;30172;48.832;8.732;2022-10-16T03:53:26;3.07;;;1.20;;
15944;SDS011;30172;48.832;8.732;2022-10-16T03:55:51;2.37;;;1.40;;
15944;SDS011;30172;48.832;8.732;2022-10-16T03:58:16;2.57;;;1.50;;
15944;SDS011;30172;48.832;8.732;2022-10-16T04:00:42;2.50;;;1.37;;
15944;SDS011;30172;48.832;8.732;2022-10-16T04:03:08;2.37;;;1.47;;
15944;SDS011;30172;48.832;8.732;2022-10-16T04:05:33;3.47;;;1.30;;
15944;SDS011;30172;48.832;8.732;2022-10-16T04:07:59;2.00;;;1.40;;
15944;SDS011;30172;48.832;8.732;2022-10-16T04:10:24;2.83;;;1.50;;
15944;SDS011;30172;48.832;8.732;2022-10-16T04:12:49;1.97;;;1.37;;
15944;SDS011;30172;48.832;8.732;2022-10-16T04:15:15;2.97;;;1.60;;
15944;SDS011;30172;48.832;8.732;2022-10-16T04:17:40;1.50;;;1.40;;
15944;SDS011;30172;48.832;8.732;2022-10-16T04:20:05;1.60;;;1.50;;
15944;SDS011;30172;48.832;8.732;2022-10-16T04:22:31;2.23;;;1.50;;
15944;SDS011;30172;48.832;8.732;2022-10-16T04:24:56;3.10;;;1.53;;
15944;SDS011;30172;48.832;8.732;2022-10-16T04:27:21;2.23;;;1.37;;
15944;SDS011;30172;48.832;8.732;2022-10-16T04:29:47;4.23;;;1.50;;
15944;SDS011;30172;48.832;8.732;2022-10-16T04:32:12;3.17;;;1.70;;
15944;SDS011;30172;48.832;8.732;2022-10-16T04:34:38;1.53;;;1.43;;
15944;SDS011;30172;48.832;8.732;2022-10-16T04:37:04;1.57;;;1.47;;
15944;SDS011;30172;48.832;8.732;2022-10-16T04:39:30;4.03;;;1.50;;
15944;SDS011;30172;48.832;8.732;2022-10-16T04:41:55;2.73;;;1.50;;
15944;SDS011;30172;48.832;8.732;2022-10-16T04:44:20;2.80;;;1.30;;
15944;SDS011;30172;48.832;8.732;2022-10-16T04:46:45;5.50;;;1.60;;
15944;SDS011;30172;48.832;8.732;2022-10-16T04:49:11;1.50;;;1.30;;
15944;SDS011;30172;48.832;8.732;2022-10-16T04:51:36;1.43;;;1.30;;
15944;SDS011;30172;48.832;8.732;2022-10-16T04:54:01;3.40;;;1.80;;
15944;SDS011;30172;48.832;8.732;2022-10-16T04:56:27;3.73;;;1.73;;
15944;SDS011;30172;48.832;8.732;2022-10-16T04:58:52;2.60;;;1.63;;
15944;SDS011;30172;48.832;8.732;2022-10-16T05:01:17;4.20;;;1.40;;
15944;SDS011;30172;48.832;8.732;2022-10-16T05:03:42;2.63;;;1.60;;
15944;SDS011;30172;48.832;8.732;2022-10-16T05:06:08;2.20;;;1.60;;
15944;SDS011;30172;48.832;8.732;2022-10-16T05:08:33;5.10;;;2.03;;
15944;SDS011;30172;48.832;8.732;2022-10-16T05:10:58;1.53;;;1.40;;
15944;SDS011;30172;48.832;8.732;2022-10-16T05:13:24;3.40;;;1.70;;
15944;SDS011;30172;48.832;8.732;2022-10-16T05:15:49;1.77;;;1.60;;
15944;SDS011;30172;48.832;8.732;2022-10-16T05:18:15;1.37;;;1.27;;
15944;SDS011;30172;48.832;8.732;2022-10-16T05:20:41;2.13;;;1.47;;
15944;SDS011;30172;48.832;8.732;2022-10-16T05:23:06;1.83;;;1.50;;
15944;SDS011;30172;48.832;8.732;2022-10-16T05:25:32;2.70;;;1.37;;
15944;SDS011;30172;48.832;8.732;2022-10-16T05:27:57;3.57;;;1.50;;
15944;SDS011;30172;48.832;8.732;2022-10-16T05:30:23;1.57;;;1.47;;
15944;SDS011;30172;48.832;8.732;2022-10-16T05:32:48;4.23;;;1.60;;
15944;SDS011;30172;48.832;8.732;2022-10-16T05:35:15;1.73;;;1.40;;
15944;SDS011;30172;48.832;8.732;2022-10-16T05:37:41;2.00;;;1.50;;
15944;SDS011;30172;48.832;8.732;2022-10-16T05:40:06;4.60;;;1.70;;
15944;SDS011;30172;48.832;8.732;2022-10-16T05:42:32;2.23;;;1.43;;
15944;SDS011;30172;48.832;8.732;2022-10-16T05:44:57;3.87;;;1.63;;
15944;SDS011;30172;48.832;8.732;2022-10-16T05:47:23;3.00;;;1.70;;
15944;SDS011;30172;48.832;8.732;2022-10-16T05:49:48;3.03;;;1.27;;
15944;SDS011;30172;48.832;8.732;2022-10-16T05:52:13;5.10;;;1.60;;
15944;SDS011;30172;48.832;8.732;2022-10-16T05:54:39;1.63;;;1.53;;
15944;SDS011;30172;48.832;8.732;2022-10-16T05:57:04;2.20;;;1.47;;
15944;SDS011;30172;48.832;8.732;2022-10-16T05:59:30;1.43;;;1.30;;
15944;SDS011;30172;48.832;8.732;2022-10-16T06:01:56;3.80;;;1.23;;
15944;SDS011;30172;48.832;8.732;2022-10-16T06:04:21;1.97;;;1.53;;
15944;SDS011;30172;48.832;8.732;2022-10-16T06:06:47;3.60;;;1.63;;
15944;SDS011;30172;48.832;8.732;2022-10-16T06:09:12;1.65;;;1.55;;
15944;SDS011;30172;48.832;8.732;2022-10-16T06:21:17;3.27;;;1.50;;
15944;SDS011;30172;48.832;8.732;2022-10-16T06:37:59;2.00;;;1.53;;
15944;SDS011;30172;48.832;8.732;2022-10-16T06:40:27;2.58;;;1.70;;
15944;SDS011;30172;48.832;8.732;2022-10-16T06:42:54;2.38;;;1.40;;
15944;SDS011;30172;48.832;8.732;2022-10-16T06:45:20;2.20;;;1.38;;
15944;SDS011;30172;48.832;8.732;2022-10-16T06:47:45;4.07;;;1.47;;
15944;SDS011;30172;48.832;8.732;2022-10-16T06:50:10;2.47;;;1.50;;
15944;SDS011;30172;48.832;8.732;2022-10-16T06:52:36;1.70;;;1.48;;
15944;SDS011;30172;48.832;8.732;2022-10-16T06:55:01;3.83;;;1.60;;
15944;SDS011;30172;48.832;8.732;2022-10-16T06:57:27;1.90;;;1.20;;
15944;SDS011;30172;48.832;8.732;2022-10-16T06:59:53;2.47;;;1.40;;
15944;SDS011;30172;48.832;8.732;2022-10-16T07:02:18;2.15;;;1.50;;
15944;SDS011;30172;48.832;8.732;2022-10-16T07:04:44;1.92;;;1.40;;
15944;SDS011;30172;48.832;8.732;2022-10-16T07:07:09;1.77;;;1.47;;
15944;SDS011;30172;48.832;8.732;2022-10-16T07:09:35;1.50;;;1.40;;
15944;SDS011;30172;48.832;8.732;2022-10-16T07:12:00;4.80;;;1.60;;
15944;SDS011;30172;48.832;8.732;2022-10-16T07:14:26;1.70;;;1.60;;
15944;SDS011;30172;48.832;8.732;2022-10-16T07:16:51;1.67;;;1.57;;
15944;SDS011;30172;48.832;8.732;2022-10-16T07:19:16;3.60;;;2.47;;
15944;SDS011;30172;48.832;8.732;2022-10-16T07:21:43;2.43;;;2.00;;
15944;SDS011;30172;48.832;8.732;2022-10-16T07:24:13;1.65;;;1.55;;
15944;SDS011;30172;48.832;8.732;2022-10-16T07:26:39;4.40;;;1.80;;
15944;SDS011;30172;48.832;8.732;2022-10-16T07:29:07;5.75;;;1.70;;
15944;SDS011;30172;48.832;8.732;2022-10-16T07:31:37;3.60;;;1.70;;
15944;SDS011;30172;48.832;8.732;2022-10-16T07:34:03;1.73;;;1.40;;
15944;SDS011;30172;48.832;8.732;2022-10-16T07:36:28;2.63;;;1.45;;
15944;SDS011;30172;48.832;8.732;2022-10-16T07:38:54;7.28;;;1.80;;
15944;SDS011;30172;48.832;8.732;2022-10-16T07:41:19;2.10;;;1.77;;
15944;SDS011;30172;48.832;8.732;2022-10-16T07:43:45;1.95;;;1.75;;
15944;SDS011;30172;48.832;8.732;2022-10-16T07:46:11;2.67;;;1.60;;
15944;SDS011;30172;48.832;8.732;2022-10-16T07:48:37;2.83;;;1.90;;
15944;SDS011;30172;48.832;8.732;2022-10-16T07:51:03;3.30;;;1.55;;
15944;SDS011;30172;48.832;8.732;2022-10-16T07:53:29;3.30;;;1.80;;
15944;SDS011;30172;48.832;8.732;2022-10-16T07:56:02;2.40;;;2.20;;
15944;SDS011;30172;48.832;8.732;2022-10-16T07:58:29;2.90;;;1.63;;
15944;SDS011;30172;48.832;8.732;2022-10-16T08:00:55;2.10;;;1.83;;
15944;SDS011;30172;48.832;8.732;2022-10-16T08:03:20;5.55;;;1.83;;
15944;SDS011;30172;48.832;8.732;2022-10-16T08:05:46;1.80;;;1.70;;
15944;SDS011;30172;48.832;8.732;2022-10-16T08:08:13;2.22;;;1.75;;
15944;SDS011;30172;48.832;8.732;2022-10-16T08:10:39;3.00;;;2.17;;
15944;SDS011;30172;48.832;8.732;2022-10-16T08:13:04;3.45;;;2.50;;
15944;SDS011;30172;48.832;8.732;2022-10-16T08:15:29;3.90;;;2.40;;
15944;SDS011;30172;48.832;8.732;2022-10-16T08:17:55;3.95;;;2.35;;
15944;SDS011;30172;48.832;8.732;2022-10-16T08:20:22;5.75;;;2.30;;
15944;SDS011;30172;48.832;8.732;2022-10-16T08:22:47;6.75;;;2.97;;
15944;SDS011;30172;48.832;8.732;2022-10-16T08:25:12;9.07;;;3.60;;
15944;SDS011;30172;48.832;8.732;2022-10-16T08:27:37;3.58;;;2.80;;
15944;SDS011;30172;48.832;8.732;2022-10-16T08:30:03;14.43;;;7.75;;
15944;SDS011;30172;48.832;8.732;2022-10-16T08:32:28;7.22;;;3.20;;
15944;SDS011;30172;48.832;8.732;2022-10-16T08:34:54;2.58;;;1.70;;
15944;SDS011;30172;48.832;8.732;2022-10-16T08:37:19;4.07;;;1.40;;
15944;SDS011;30172;48.832;8.732;2022-10-16T08:39:44;2.65;;;1.63;;
15944;SDS011;30172;48.832;8.732;2022-10-16T08:44:44;3.85;;;1.45;;
15944;SDS011;30172;48.832;8.732;2022-10-16T08:47:25;3.70;;;1.42;;
15944;SDS011;30172;48.832;8.732;2022-10-16T08:50:10;3.03;;;1.40;;
15944;SDS011;30172;48.832;8.732;2022-10-16T08:52:41;1.40;;;1.30;;
15944;SDS011;30172;48.832;8.732;2022-10-16T08:55:17;2.53;;;1.42;;
15944;SDS011;30172;48.832;8.732;2022-10-16T08:57:51;3.50;;;1.38;;
15944;SDS011;30172;48.832;8.732;2022-10-16T09:00:16;5.90;;;1.30;;
15944;SDS011;30172;48.832;8.732;2022-10-16T09:08:21;1.98;;;1.17;;
15944;SDS011;30172;48.832;8.732;2022-10-16T09:16:56;2.65;;;1.35;;
15944;SDS011;30172;48.832;8.732;2022-10-16T09:19:31;1.60;;;1.50;;
15944;SDS011;30172;48.832;8.732;2022-10-16T09:22:04;2.72;;;1.52;;
15944;SDS011;30172;48.832;8.732;2022-10-16T09:24:39;2.75;;;1.60;;
15944;SDS011;30172;48.832;8.732;2022-10-16T09:27:04;2.40;;;1.50;;
15944;SDS011;30172;48.832;8.732;2022-10-16T09:29:29;1.75;;;1.40;;
15944;SDS011;30172;48.832;8.732;2022-10-16T09:31:55;2.85;;;1.30;;
15944;SDS011;30172;48.832;8.732;2022-10-16T09:34:35;1.75;;;1.20;;
15944;SDS011;30172;48.832;8.732;2022-10-16T09:37:05;1.55;;;1.40;;
15944;SDS011;30172;48.832;8.732;2022-10-16T09:39:47;3.03;;;1.52;;
15944;SDS011;30172;48.832;8.732;2022-10-16T09:42:18;4.03;;;1.65;;
15944;SDS011;30172;48.832;8.732;2022-10-16T09:44:48;1.70;;;1.40;;
15944;SDS011;30172;48.832;8.732;2022-10-16T09:47:16;2.03;;;1.42;;
15944;SDS011;30172;48.832;8.732;2022-10-16T09:49:59;3.05;;;1.42;;
15944;SDS011;30172;48.832;8.732;2022-10-16T09:52:31;2.42;;;1.35;;
15944;SDS011;30172;48.832;8.732;2022-10-16T09:55:30;2.67;;;1.63;;
15944;SDS011;30172;48.832;8.732;2022-10-16T09:57:52;2.15;;;1.13;;
15944;SDS011;30172;48.832;8.732;2022-10-16T10:00:18;5.18;;;1.50;;
15944;SDS011;30172;48.832;8.732;2022-10-16T10:02:44;2.22;;;1.35;;
15944;SDS011;30172;48.832;8.732;2022-10-16T10:05:23;2.55;;;1.25;;
15944;SDS011;30172;48.832;8.732;2022-10-16T10:07:54;4.57;;;1.60;;
15944;SDS011;30172;48.832;8.732;2022-10-16T10:10:22;2.10;;;1.50;;
15944;SDS011;30172;48.832;8.732;2022-10-16T10:12:49;4.05;;;1.45;;
15944;SDS011;30172;48.832;8.732;2022-10-16T10:15:14;1.70;;;1.23;;
15944;SDS011;30172;48.832;8.732;2022-10-16T10:17:47;1.48;;;1.20;;
15944;SDS011;30172;48.832;8.732;2022-10-16T10:20:33;1.98;;;1.35;;
15944;SDS011;30172;48.832;8.732;2022-10-16T10:23:00;1.85;;;1.52;;
15944;SDS011;30172;48.832;8.732;2022-10-16T10:25:29;1.40;;;1.30;;
15944;SDS011;30172;48.832;8.732;2022-10-16T10:31:11;1.95;;;1.30;;
15944;SDS011;30172;48.832;8.732;2022-10-16T10:33:41;1.30;;;1.20;;
15944;SDS011;30172;48.832;8.732;2022-10-16T10:44:47;1.55;;;1.33;;
15944;SDS011;30172;48.832;8.732;2022-10-16T10:47:31;2.40;;;1.40;;
15944;SDS011;30172;48.832;8.732;2022-10-16T10:50:05;3.38;;;1.13;;
15944;SDS011;30172;48.832;8.732;2022-10-16T10:52:59;2.00;;;1.13;;
15944;SDS011;30172;48.832;8.732;2022-10-16T11:00:54;1.20;;;1.10;;
15944;SDS011;30172;48.832;8.732;2022-10-16T11:06:22;2.17;;;1.60;;
15944;SDS011;30172;48.832;8.732;2022-10-16T11:11:25;1.63;;;1.52;;
15944;SDS011;30172;48.832;8.732;2022-10-16T11:14:03;5.22;;;1.83;;
15944;SDS011;30172;48.832;8.732;2022-10-16T11:16:32;1.30;;;1.17;;
15944;SDS011;30172;48.832;8.732;2022-10-16T11:21:39;2.17;;;1.45;;
15944;SDS011;30172;48.832;8.732;2022-10-16T11:24:13;3.03;;;1.60;;
15944;SDS011;30172;48.832;8.732;2022-10-16T11:26:43;2.53;;;1.52;;
15944;SDS011;30172;48.832;8.732;2022-10-16T11:29:13;2.15;;;1.10;;
15944;SDS011;30172;48.832;8.732;2022-10-16T11:32:05;3.33;;;1.50;;
15944;SDS011;30172;48.832;8.732;2022-10-16T11:34:43;5.90;;;1.40;;
15944;SDS011;30172;48.832;8.732;2022-10-16T11:37:14;1.60;;;1.50;;
15944;SDS011;30172;48.832;8.732;2022-10-16T11:39:42;3.15;;;1.65;;
15944;SDS011;30172;48.832;8.732;2022-10-16T11:44:44;3.70;;;1.73;;
15944;SDS011;30172;48.832;8.732;2022-10-16T11:47:25;2.38;;;2.17;;
15944;SDS011;30172;48.832;8.732;2022-10-16T11:50:09;1.90;;;1.65;;
15944;SDS011;30172;48.832;8.732;2022-10-16T11:52:55;2.08;;;1.60;;
15944;SDS011;30172;48.832;8.732;2022-10-16T11:55:40;3.08;;;1.80;;
15944;SDS011;30172;48.832;8.732;2022-10-16T12:03:42;3.47;;;2.83;;
15944;SDS011;30172;48.832;8.732;2022-10-16T12:08:49;2.72;;;2.17;;
15944;SDS011;30172;48.832;8.732;2022-10-16T12:14:03;4.50;;;2.40;;
15944;SDS011;30172;48.832;8.732;2022-10-16T12:17:23;2.70;;;2.03;;
15944;SDS011;30172;48.832;8.732;2022-10-16T12:19:56;4.25;;;2.30;;
15944;SDS011;30172;48.832;8.732;2022-10-16T12:22:22;1.42;;;1.30;;
15944;SDS011;30172;48.832;8.732;2022-10-16T12:24:50;1.50;;;1.40;;
15944;SDS011;30172;48.832;8.732;2022-10-16T12:27:29;2.20;;;1.70;;
15944;SDS011;30172;48.832;8.732;2022-10-16T12:29:57;6.82;;;3.80;;
15944;SDS011;30172;48.832;8.732;2022-10-16T12:34:53;4.75;;;2.13;;
15944;SDS011;30172;48.832;8.732;2022-10-16T12:39:51;2.28;;;1.52;;
15944;SDS011;30172;48.832;8.732;2022-10-16T12:44:53;3.72;;;2.20;;
15944;SDS011;30172;48.832;8.732;2022-10-16T12:47:38;4.90;;;1.50;;
15944;SDS011;30172;48.832;8.732;2022-10-16T12:50:27;5.38;;;2.60;;
15944;SDS011;30172;48.832;8.732;2022-10-16T12:53:02;5.32;;;2.63;;
15944;SDS011;30172;48.832;8.732;2022-10-16T12:55:32;2.08;;;1.67;;
15944;SDS011;30172;48.832;8.732;2022-10-16T12:58:18;3.50;;;1.60;;
15944;SDS011;30172;48.832;8.732;2022-10-16T13:09:13;3.85;;;2.17;;
15944;SDS011;30172;48.832;8.732;2022-10-16T13:11:47;3.40;;;1.80;;
15944;SDS011;30172;48.832;8.732;2022-10-16T13:14:35;1.52;;;1.42;;
15944;SDS011;30172;48.832;8.732;2022-10-16T13:17:11;4.30;;;3.33;;
15944;SDS011;30172;48.832;8.732;2022-10-16T13:19:43;3.58;;;2.58;;
15944;SDS011;30172;48.832;8.732;2022-10-16T13:22:35;5.45;;;1.75;;
15944;SDS011;30172;48.832;8.732;2022-10-16T13:28:12;3.50;;;1.48;;
15944;SDS011;30172;48.832;8.732;2022-10-16T13:30:45;2.53;;;1.38;;
15944;SDS011;30172;48.832;8.732;2022-10-16T13:33:17;3.67;;;1.77;;
15944;SDS011;30172;48.832;8.732;2022-10-16T13:35:52;5.00;;;1.75;;
15944;SDS011;30172;48.832;8.732;2022-10-16T13:38:22;2.47;;;1.45;;
15944;SDS011;30172;48.832;8.732;2022-10-16T13:40:56;2.45;;;1.67;;
15944;SDS011;30172;48.832;8.732;2022-10-16T13:43:35;3.17;;;1.52;;
15944;SDS011;30172;48.832;8.732;2022-10-16T13:46:05;2.65;;;1.65;;
15944;SDS011;30172;48.832;8.732;2022-10-16T13:48:41;2.10;;;1.73;;
15944;SDS011;30172;48.832;8.732;2022-10-16T13:51:12;3.92;;;1.70;;
15944;SDS011;30172;48.832;8.732;2022-10-16T13:53:39;5.68;;;2.13;;
15944;SDS011;30172;48.832;8.732;2022-10-16T13:56:06;3.08;;;1.40;;
15944;SDS011;30172;48.832;8.732;2022-10-16T13:58:35;4.95;;;1.80;;
15944;SDS011;30172;48.832;8.732;2022-10-16T14:03:27;4.57;;;1.92;;
15944;SDS011;30172;48.832;8.732;2022-10-16T14:05:53;2.35;;;1.85;;
15944;SDS011;30172;48.832;8.732;2022-10-16T14:08:21;2.88;;;2.00;;
15944;SDS011;30172;48.832;8.732;2022-10-16T14:10:48;3.70;;;2.20;;
15944;SDS011;30172;48.832;8.732;2022-10-16T14:13:19;1.73;;;1.60;;
15944;SDS011;30172;48.832;8.732;2022-10-16T14:15:53;3.83;;;1.77;;
15944;SDS011;30172;48.832;8.732;2022-10-16T14:18:20;5.18;;;1.65;;
15944;SDS011;30172;48.832;8.732;2022-10-16T14:20:47;3.08;;;1.63;;
15944;SDS011;30172;48.832;8.732;2022-10-16T14:26:04;2.00;;;1.80;;
15944;SDS011;30172;48.832;8.732;2022-10-16T14:28:31;2.55;;;1.60;;
15944;SDS011;30172;48.832;8.732;2022-10-16T14:30:57;2.63;;;1.75;;
15944;SDS011;30172;48.832;8.732;2022-10-16T14:38:35;1.60;;;1.50;;
15944;SDS011;30172;48.832;8.732;2022-10-16T14:41:02;2.22;;;1.48;;
15944;SDS011;30172;48.832;8.732;2022-10-16T14:45:58;2.22;;;1.70;;
15944;SDS011;30172;48.832;8.732;2022-10-16T14:48:25;2.70;;;1.63;;
15944;SDS011;30172;48.832;8.732;2022-10-16T14:50:51;4.55;;;1.60;;
15944;SDS011;30172;48.832;8.732;2022-10-16T14:53:16;4.43;;;1.50;;
15944;SDS011;30172;48.832;8.732;2022-10-16T14:55:42;4.82;;;1.60;;
15944;SDS011;30172;48.832;8.732;2022-10-16T14:58:15;2.97;;;1.73;;
15944;SDS011;30172;48.832;8.732;2022-10-16T15:00:44;3.08;;;1.80;;
15944;SDS011;30172;48.832;8.732;2022-10-16T15:03:09;3.20;;;1.80;;
15944;SDS011;30172;48.832;8.732;2022-10-16T15:05:40;4.03;;;1.55;;
15944;SDS011;30172;48.832;8.732;2022-10-16T15:10:39;2.38;;;2.17;;
15944;SDS011;30172;48.832;8.732;2022-10-16T15:13:06;2.55;;;1.90;;
15944;SDS011;30172;48.832;8.732;2022-10-16T15:15:38;4.13;;;1.98;;
15944;SDS011;30172;48.832;8.732;2022-10-16T15:18:17;3.05;;;1.80;;
15944;SDS011;30172;48.832;8.732;2022-10-16T15:20:48;5.30;;;1.85;;
15944;SDS011;30172;48.832;8.732;2022-10-16T18:09:58;4.30;;;3.75;;
15944;SDS011;30172;48.832;8.732;2022-10-16T18:12:37;4.72;;;4.18;;
15944;SDS011;30172;48.832;8.732;2022-10-16T18:15:02;4.60;;;3.33;;
15944;SDS011;30172;48.832;8.732;2022-10-16T18:17:28;5.57;;;2.90;;
15944;SDS011;30172;48.832;8.732;2022-10-16T18:19:55;4.95;;;3.10;;
15944;SDS011;30172;48.832;8.732;2022-10-16T18:22:20;5.07;;;3.42;;
15944;SDS011;30172;48.832;8.732;2022-10-16T18:24:53;9.15;;;5.72;;
15944;SDS011;30172;48.832;8.732;2022-10-16T18:27:32;7.90;;;6.22;;
15944;SDS011;30172;48.832;8.732;2022-10-16T18:36:44;4.47;;;3.55;;
15944;SDS011;30172;48.832;8.732;2022-10-16T18:39:24;5.07;;;3.33;;
15944;SDS011;30172;48.832;8.732;2022-10-16T18:41:49;8.57;;;3.63;;
15944;SDS011;30172;48.832;8.732;2022-10-16T18:44:17;8.90;;;4.25;;
15944;SDS011;30172;48.832;8.732;2022-10-16T18:46:48;6.90;;;4.60;;
15944;SDS011;30172;48.832;8.732;2022-10-16T18:49:16;6.63;;;4.30;;
15944;SDS011;30172;48.832;8.732;2022-10-16T18:51:48;3.78;;;3.05;;
15944;SDS011;30172;48.832;8.732;2022-10-16T18:54:16;5.47;;;3.35;;
15944;SDS011;30172;48.832;8.732;2022-10-16T18:56:44;4.90;;;3.20;;
15944;SDS011;30172;48.832;8.732;2022-10-16T18:59:10;4.88;;;3.45;;
15944;SDS011;30172;48.832;8.732;2022-10-16T19:01:36;5.45;;;3.00;;
15944;SDS011;30172;48.832;8.732;2022-10-16T19:04:05;4.95;;;3.22;;
15944;SDS011;30172;48.832;8.732;2022-10-16T19:06:33;7.25;;;3.33;;
15944;SDS011;30172;48.832;8.732;2022-10-16T19:09:13;4.75;;;4.25;;
15944;SDS011;30172;48.832;8.732;2022-10-16T19:11:42;6.05;;;3.30;;
15944;SDS011;30172;48.832;8.732;2022-10-16T19:14:12;4.90;;;3.83;;
15944;SDS011;30172;48.832;8.732;2022-10-16T19:16:39;5.78;;;3.50;;
15944;SDS011;30172;48.832;8.732;2022-10-16T19:19:10;3.63;;;2.97;;
15944;SDS011;30172;48.832;8.732;2022-10-16T19:21:44;6.45;;;3.17;;
15944;SDS011;30172;48.832;8.732;2022-10-16T19:24:12;6.38;;;3.65;;
15944;SDS011;30172;48.832;8.732;2022-10-16T19:26:38;5.45;;;3.17;;
15944;SDS011;30172;48.832;8.732;2022-10-16T19:29:04;3.92;;;2.95;;
15944;SDS011;30172;48.832;8.732;2022-10-16T19:31:31;4.45;;;2.88;;
15944;SDS011;30172;48.832;8.732;2022-10-16T19:33:59;4.57;;;3.00;;
15944;SDS011;30172;48.832;8.732;2022-10-16T19:36:26;4.40;;;3.03;;
15944;SDS011;30172;48.832;8.732;2022-10-16T19:39:00;3.17;;;2.72;;
15944;SDS011;30172;48.832;8.732;2022-10-16T19:41:30;4.38;;;2.30;;
15944;SDS011;30172;48.832;8.732;2022-10-16T19:43:59;9.23;;;2.95;;
15944;SDS011;30172;48.832;8.732;2022-10-16T19:46:25;5.70;;;2.67;;
15944;SDS011;30172;48.832;8.732;2022-10-16T19:48:58;4.03;;;3.25;;
15944;SDS011;30172;48.832;8.732;2022-10-16T19:51:25;3.08;;;2.58;;
15944;SDS011;30172;48.832;8.732;2022-10-16T19:53:52;3.63;;;3.33;;